Time;durP1;ratioP1;P1;durP2;ratioP2;P2;SDS_P1;SDS_P2;PMS_P1;PMS_P2;Temp;Humidity;BMP_temperature;BMP_pressure;BME280_temperature;BME280_humidity;BME280_pressure;Samples;Min_cycle;Max_cycle;Signal;HPM_P1;HPM_P2
2023/08/18 00:01:25;;;;;;;40.43;20.40;;;;;;;;;;735003;190;917707;-65
2023/08/18 00:03:51;;;;;;;28.40;20.17;;;;;;;;;;725897;193;917698;-64
2023/08/18 00:06:16;;;;;;;36.43;19.87;;;;;;;;;;727500;190;919063;-65
2023/08/18 00:08:42;;;;;;;27.70;18.70;;;;;;;;;;735219;190;920555;-64
2023/08/18 00:11:08;;;;;;;26.03;17.43;;;;;;;;;;734326;190;922633;-66
2023/08/18 00:13:34;;;;;;;27.47;17.87;;;;;;;;;;740312;189;918685;-65
2023/08/18 00:16:00;;;;;;;33.60;18.93;;;;;;;;;;729633;189;918582;-66
2023/08/18 00:18:26;;;;;;;27.27;18.13;;;;;;;;;;738916;188;919614;-65
2023/08/18 00:20:51;;;;;;;30.73;18.20;;;;;;;;;;737002;190;918674;-65
2023/08/18 00:23:17;;;;;;;28.20;18.20;;;;;;;;;;733940;190;919661;-65
2023/08/18 00:25:43;;;;;;;25.77;19.80;;;;;;;;;;734293;189;918001;-65
2023/08/18 00:28:09;;;;;;;26.00;18.67;;;;;;;;;;736154;189;946395;-66
2023/08/18 00:30:35;;;;;;;27.87;18.97;;;;;;;;;;740671;188;919075;-66
2023/08/18 00:33:01;;;;;;;26.40;19.70;;;;;;;;;;736395;189;919843;-63
2023/08/18 00:35:27;;;;;;;29.47;18.40;;;;;;;;;;739719;190;921050;-64
2023/08/18 00:37:53;;;;;;;26.85;18.08;;;;;;;;;;737782;189;918886;-66
2023/08/18 00:40:18;;;;;;;28.03;18.10;;;;;;;;;;733401;190;918411;-63
2023/08/18 00:42:44;;;;;;;33.13;19.90;;;;;;;;;;736043;189;921931;-66
2023/08/18 00:45:10;;;;;;;39.20;21.10;;;;;;;;;;740157;190;918030;-66
2023/08/18 00:47:36;;;;;;;39.60;22.77;;;;;;;;;;737200;189;918790;-66
2023/08/18 00:50:02;;;;;;;53.55;24.63;;;;;;;;;;735956;189;910312;-65
2023/08/18 00:52:28;;;;;;;47.73;22.03;;;;;;;;;;736207;189;1015414;-66
2023/08/18 00:54:53;;;;;;;60.10;25.53;;;;;;;;;;744859;183;816459;-64
2023/08/18 00:57:19;;;;;;;57.90;26.02;;;;;;;;;;746912;188;919417;-63
2023/08/18 00:59:45;;;;;;;78.00;26.47;;;;;;;;;;737066;190;921094;-66
2023/08/18 01:02:11;;;;;;;86.33;26.57;;;;;;;;;;736715;187;926353;-65
2023/08/18 01:04:37;;;;;;;78.10;26.60;;;;;;;;;;731791;189;919355;-66
2023/08/18 01:07:03;;;;;;;77.97;26.43;;;;;;;;;;738130;190;919518;-64
2023/08/18 01:09:28;;;;;;;70.57;26.70;;;;;;;;;;739934;188;919189;-65
2023/08/18 01:12:13;;;;;;;88.53;28.33;;;;;;;;;;741459;189;922551;-66
2023/08/18 01:14:45;;;;;;;81.80;29.17;;;;;;;;;;730645;189;919230;-67
2023/08/18 01:17:11;;;;;;;88.33;29.53;;;;;;;;;;737325;188;919548;-65
2023/08/18 01:19:37;;;;;;;108.73;32.23;;;;;;;;;;744186;190;918639;-65
2023/08/18 01:22:05;;;;;;;83.50;27.50;;;;;;;;;;732039;190;918648;-68
2023/08/18 01:24:29;;;;;;;107.68;31.65;;;;;;;;;;730808;190;919170;-67
2023/08/18 01:26:55;;;;;;;111.73;31.67;;;;;;;;;;732386;190;918630;-67
2023/08/18 01:29:21;;;;;;;109.80;30.10;;;;;;;;;;734596;190;921962;-65
2023/08/18 01:31:47;;;;;;;137.87;33.40;;;;;;;;;;733546;190;930879;-65
2023/08/18 01:34:12;;;;;;;133.97;32.87;;;;;;;;;;730999;190;919192;-66
2023/08/18 01:36:38;;;;;;;119.63;33.23;;;;;;;;;;740214;190;918854;-65
2023/08/18 01:39:04;;;;;;;159.37;32.87;;;;;;;;;;734378;189;920846;-68
2023/08/18 01:41:31;;;;;;;202.03;33.20;;;;;;;;;;738668;189;918845;-67
2023/08/18 01:43:56;;;;;;;163.17;34.93;;;;;;;;;;741644;189;918918;-68
2023/08/18 01:46:22;;;;;;;159.30;34.77;;;;;;;;;;735569;190;919103;-67
2023/08/18 01:48:47;;;;;;;174.87;33.80;;;;;;;;;;733362;189;918298;-66
2023/08/18 01:51:13;;;;;;;164.07;34.30;;;;;;;;;;738730;189;919646;-67
2023/08/18 01:53:39;;;;;;;150.17;31.73;;;;;;;;;;746679;186;919938;-67
2023/08/18 01:56:05;;;;;;;198.13;35.67;;;;;;;;;;735471;189;919350;-67
2023/08/18 01:58:31;;;;;;;213.57;34.47;;;;;;;;;;736570;189;918878;-66
2023/08/18 02:00:57;;;;;;;177.80;35.00;;;;;;;;;;741366;189;920261;-66
2023/08/18 02:03:23;;;;;;;158.67;32.27;;;;;;;;;;736174;189;920483;-66
2023/08/18 02:05:48;;;;;;;210.70;36.80;;;;;;;;;;736448;189;921351;-65
2023/08/18 02:08:14;;;;;;;187.07;32.53;;;;;;;;;;736165;191;918989;-67
2023/08/18 02:10:40;;;;;;;279.27;35.27;;;;;;;;;;734842;191;919945;-67
2023/08/18 02:13:06;;;;;;;144.37;33.13;;;;;;;;;;733346;192;919991;-66
2023/08/18 02:15:32;;;;;;;242.13;36.83;;;;;;;;;;736764;190;920286;-68
2023/08/18 02:17:58;;;;;;;308.63;37.67;;;;;;;;;;740357;187;917811;-65
2023/08/18 02:20:24;;;;;;;223.07;36.23;;;;;;;;;;730388;190;942958;-65
2023/08/18 02:22:50;;;;;;;261.00;36.20;;;;;;;;;;733393;190;920173;-66
2023/08/18 02:25:16;;;;;;;186.00;33.13;;;;;;;;;;742509;189;920042;-66
2023/08/18 02:27:42;;;;;;;164.57;32.00;;;;;;;;;;729750;190;1022446;-66
2023/08/18 02:30:08;;;;;;;186.73;33.80;;;;;;;;;;736702;190;1019498;-66
2023/08/18 02:32:34;;;;;;;276.17;35.90;;;;;;;;;;741174;190;885183;-67
2023/08/18 02:35:01;;;;;;;256.63;35.53;;;;;;;;;;739212;189;1122478;-65
2023/08/18 02:37:25;;;;;;;300.67;37.00;;;;;;;;;;730707;191;1019792;-65
2023/08/18 02:39:51;;;;;;;277.07;35.33;;;;;;;;;;735784;191;1023086;-67
2023/08/18 02:42:17;;;;;;;206.57;33.95;;;;;;;;;;731064;191;918339;-65
2023/08/18 02:44:43;;;;;;;394.93;39.13;;;;;;;;;;731921;190;921631;-67
2023/08/18 02:47:09;;;;;;;350.30;39.07;;;;;;;;;;738954;190;914369;-65
2023/08/18 02:49:35;;;;;;;264.07;32.97;;;;;;;;;;735664;190;918025;-66
2023/08/18 02:52:01;;;;;;;257.20;34.90;;;;;;;;;;737252;188;920621;-67
2023/08/18 02:54:26;;;;;;;237.30;35.53;;;;;;;;;;738237;189;922596;-66
2023/08/18 02:56:52;;;;;;;376.97;38.80;;;;;;;;;;746105;189;893815;-67
2023/08/18 02:59:19;;;;;;;231.67;30.80;;;;;;;;;;735279;190;918704;-67
2023/08/18 03:01:44;;;;;;;247.25;33.42;;;;;;;;;;734410;190;919866;-65
2023/08/18 03:04:10;;;;;;;184.43;33.90;;;;;;;;;;737712;190;917708;-66
2023/08/18 03:06:36;;;;;;;219.33;30.70;;;;;;;;;;730084;190;918595;-67
2023/08/18 03:09:02;;;;;;;239.73;32.70;;;;;;;;;;732319;190;921017;-65
2023/08/18 03:11:28;;;;;;;203.27;30.90;;;;;;;;;;732763;189;922083;-66
2023/08/18 03:13:53;;;;;;;145.17;32.13;;;;;;;;;;730764;189;923619;-66
2023/08/18 03:16:20;;;;;;;117.33;29.53;;;;;;;;;;735877;189;917115;-66
2023/08/18 03:18:45;;;;;;;135.07;32.37;;;;;;;;;;712268;191;936932;-68
2023/08/18 03:21:11;;;;;;;145.23;32.10;;;;;;;;;;737083;191;920813;-66
2023/08/18 03:23:37;;;;;;;122.70;30.80;;;;;;;;;;722656;193;919938;-67
2023/08/18 03:26:03;;;;;;;140.03;30.93;;;;;;;;;;731197;190;922646;-66
2023/08/18 03:28:29;;;;;;;160.33;31.37;;;;;;;;;;738951;190;919056;-67
2023/08/18 03:30:54;;;;;;;123.13;30.13;;;;;;;;;;735196;190;918974;-65
2023/08/18 03:33:20;;;;;;;145.90;31.47;;;;;;;;;;734689;190;944316;-68
2023/08/18 03:35:48;;;;;;;121.85;32.58;;;;;;;;;;738580;190;926485;-67
2023/08/18 03:38:14;;;;;;;137.17;30.03;;;;;;;;;;740251;189;920892;-65
2023/08/18 03:40:40;;;;;;;147.13;33.20;;;;;;;;;;729384;190;918837;-68
2023/08/18 03:43:06;;;;;;;129.15;31.73;;;;;;;;;;732909;190;1177584;-65
2023/08/18 03:45:33;;;;;;;112.97;32.60;;;;;;;;;;737670;190;835921;-67
2023/08/18 03:47:58;;;;;;;82.87;28.00;;;;;;;;;;736052;190;915129;-67
2023/08/18 03:50:24;;;;;;;91.73;32.57;;;;;;;;;;728409;190;916386;-65
2023/08/18 03:52:49;;;;;;;74.03;32.67;;;;;;;;;;734053;190;915901;-68
2023/08/18 03:55:15;;;;;;;111.37;34.43;;;;;;;;;;729966;191;922554;-66
2023/08/18 03:57:41;;;;;;;61.73;32.67;;;;;;;;;;731713;190;917254;-64
2023/08/18 04:00:10;;;;;;;56.80;31.70;;;;;;;;;;731808;190;945866;-67
2023/08/18 04:02:35;;;;;;;60.08;28.55;;;;;;;;;;739440;188;914844;-67
2023/08/18 04:05:02;;;;;;;62.33;27.87;;;;;;;;;;733888;189;934266;-67
2023/08/18 04:07:27;;;;;;;69.07;26.83;;;;;;;;;;735176;190;916059;-66
2023/08/18 04:09:53;;;;;;;44.23;25.33;;;;;;;;;;739131;189;1094411;-66
2023/08/18 04:12:19;;;;;;;52.47;23.10;;;;;;;;;;733006;189;1139601;-67
2023/08/18 04:14:46;;;;;;;77.82;25.85;;;;;;;;;;738205;189;909236;-67
2023/08/18 04:17:12;;;;;;;112.60;26.47;;;;;;;;;;738382;190;911935;-65
2023/08/18 04:19:37;;;;;;;133.90;25.40;;;;;;;;;;735096;190;951744;-65
2023/08/18 04:22:03;;;;;;;112.80;27.00;;;;;;;;;;732252;190;919415;-66
2023/08/18 04:24:29;;;;;;;44.40;24.07;;;;;;;;;;716233;191;2937123;-66
2023/08/18 04:26:59;;;;;;;63.10;24.53;;;;;;;;;;744529;187;918193;-67
2023/08/18 04:29:22;;;;;;;41.87;23.43;;;;;;;;;;737316;187;861712;-66
2023/08/18 04:31:49;;;;;;;36.22;21.65;;;;;;;;;;732387;189;956535;-66
2023/08/18 04:34:15;;;;;;;40.90;23.47;;;;;;;;;;739962;189;1062468;-68
2023/08/18 04:36:41;;;;;;;45.95;23.30;;;;;;;;;;732837;190;913602;-67
2023/08/18 04:39:07;;;;;;;43.90;23.70;;;;;;;;;;733864;190;913553;-66
2023/08/18 04:41:33;;;;;;;36.53;21.83;;;;;;;;;;742755;190;915665;-68
2023/08/18 04:43:59;;;;;;;42.10;24.27;;;;;;;;;;734804;190;1026204;-66
2023/08/18 04:46:25;;;;;;;38.93;22.63;;;;;;;;;;734158;190;937040;-66
2023/08/18 04:48:50;;;;;;;37.60;22.93;;;;;;;;;;738770;189;921725;-67
2023/08/18 04:51:16;;;;;;;37.13;22.40;;;;;;;;;;743819;189;653891;-66
2023/08/18 04:53:42;;;;;;;35.00;21.80;;;;;;;;;;731461;190;913262;-65
2023/08/18 04:56:09;;;;;;;37.53;20.80;;;;;;;;;;734380;190;944518;-66
2023/08/18 04:58:34;;;;;;;35.97;22.43;;;;;;;;;;737378;190;858696;-65
2023/08/18 05:01:00;;;;;;;32.63;20.40;;;;;;;;;;730269;190;1073517;-66
2023/08/18 05:03:26;;;;;;;34.78;20.75;;;;;;;;;;732577;190;919883;-67
2023/08/18 05:06:00;;;;;;;29.20;18.33;;;;;;;;;;740262;190;917920;-67
2023/08/18 05:08:25;;;;;;;27.33;18.80;;;;;;;;;;743441;189;918061;-67
2023/08/18 05:10:51;;;;;;;31.40;18.00;;;;;;;;;;733931;190;978616;-66
2023/08/18 05:13:17;;;;;;;24.13;16.17;;;;;;;;;;732515;189;1022040;-67
2023/08/18 05:15:44;;;;;;;19.77;13.60;;;;;;;;;;738429;188;1286297;-67
2023/08/18 05:18:11;;;;;;;20.87;13.40;;;;;;;;;;721416;187;3822775;-65
2023/08/18 05:20:37;;;;;;;21.57;13.73;;;;;;;;;;744340;187;919776;-67
2023/08/18 05:23:05;;;;;;;19.53;12.93;;;;;;;;;;745259;189;1155725;-67
2023/08/18 05:25:28;;;;;;;17.60;11.30;;;;;;;;;;735219;189;918791;-66
2023/08/18 05:27:54;;;;;;;16.80;12.37;;;;;;;;;;736309;189;919965;-65
2023/08/18 05:30:20;;;;;;;18.47;13.27;;;;;;;;;;733244;190;941994;-65
2023/08/18 05:32:46;;;;;;;15.10;13.20;;;;;;;;;;738833;190;919302;-67
2023/08/18 05:35:12;;;;;;;16.50;11.05;;;;;;;;;;733215;190;948450;-67
2023/08/18 05:37:38;;;;;;;15.10;11.97;;;;;;;;;;733232;190;918380;-65
2023/08/18 05:40:05;;;;;;;16.67;11.40;;;;;;;;;;740145;190;918902;-68
2023/08/18 05:42:30;;;;;;;13.33;11.07;;;;;;;;;;735077;189;973642;-66
2023/08/18 05:44:56;;;;;;;17.33;11.23;;;;;;;;;;731342;190;1000231;-65
2023/08/18 05:47:22;;;;;;;17.80;13.77;;;;;;;;;;738107;191;918070;-65
2023/08/18 05:49:48;;;;;;;17.93;13.63;;;;;;;;;;734312;190;919376;-65
2023/08/18 05:52:14;;;;;;;18.10;14.20;;;;;;;;;;716203;190;3792930;-65
2023/08/18 05:54:40;;;;;;;19.03;14.37;;;;;;;;;;732021;191;920624;-67
2023/08/18 05:57:06;;;;;;;18.00;14.60;;;;;;;;;;738713;189;1477169;-67
2023/08/18 05:59:32;;;;;;;21.60;14.33;;;;;;;;;;733408;190;922324;-67
2023/08/18 06:01:58;;;;;;;20.67;16.33;;;;;;;;;;734410;190;919044;-67
2023/08/18 06:04:23;;;;;;;29.53;18.20;;;;;;;;;;739605;190;918821;-66
2023/08/18 06:06:49;;;;;;;22.17;17.70;;;;;;;;;;734182;190;919286;-66
2023/08/18 06:09:15;;;;;;;22.37;18.10;;;;;;;;;;729742;190;918626;-67
2023/08/18 06:11:41;;;;;;;26.07;18.83;;;;;;;;;;740699;190;919318;-67
2023/08/18 06:14:07;;;;;;;28.73;21.10;;;;;;;;;;733305;190;918038;-67
2023/08/18 06:16:33;;;;;;;31.87;20.70;;;;;;;;;;736350;190;918526;-67
2023/08/18 06:18:59;;;;;;;32.72;20.45;;;;;;;;;;737128;190;923229;-66
2023/08/18 06:21:24;;;;;;;31.70;20.90;;;;;;;;;;745267;184;912696;-68
2023/08/18 06:23:50;;;;;;;28.07;21.10;;;;;;;;;;732674;190;919895;-68
2023/08/18 06:26:16;;;;;;;34.30;25.03;;;;;;;;;;733620;189;982066;-67
2023/08/18 06:28:42;;;;;;;27.40;19.70;;;;;;;;;;749944;183;915308;-68
2023/08/18 06:31:08;;;;;;;25.60;20.23;;;;;;;;;;751495;187;916155;-65
2023/08/18 06:33:34;;;;;;;31.00;21.47;;;;;;;;;;735147;189;2061467;-66
2023/08/18 06:36:00;;;;;;;26.33;20.00;;;;;;;;;;735104;189;1141029;-67
2023/08/18 06:38:26;;;;;;;32.60;20.93;;;;;;;;;;735458;189;919347;-65
2023/08/18 06:40:52;;;;;;;28.40;19.43;;;;;;;;;;736030;188;918889;-67
2023/08/18 06:43:18;;;;;;;27.27;20.50;;;;;;;;;;738367;190;918746;-66
2023/08/18 06:45:44;;;;;;;28.60;21.47;;;;;;;;;;734555;190;919206;-66
2023/08/18 06:48:10;;;;;;;33.87;21.40;;;;;;;;;;736660;190;923227;-65
2023/08/18 06:50:35;;;;;;;29.67;21.50;;;;;;;;;;734798;190;1027083;-66
2023/08/18 06:53:01;;;;;;;32.63;22.20;;;;;;;;;;736696;190;917515;-67
2023/08/18 06:55:27;;;;;;;34.33;23.30;;;;;;;;;;733872;189;919646;-66
2023/08/18 06:57:53;;;;;;;29.93;23.23;;;;;;;;;;730162;190;924873;-66
2023/08/18 07:00:19;;;;;;;33.93;24.27;;;;;;;;;;738196;190;917121;-65
2023/08/18 07:02:45;;;;;;;34.43;23.00;;;;;;;;;;733640;189;919985;-66
2023/08/18 07:05:12;;;;;;;29.80;22.07;;;;;;;;;;732967;190;918388;-65
2023/08/18 07:07:36;;;;;;;34.63;23.83;;;;;;;;;;739281;190;918100;-66
2023/08/18 07:10:02;;;;;;;35.77;25.53;;;;;;;;;;734721;190;919658;-68
2023/08/18 07:12:28;;;;;;;36.40;25.05;;;;;;;;;;730880;190;919042;-68
2023/08/18 07:14:54;;;;;;;34.67;23.60;;;;;;;;;;734143;189;923442;-66
2023/08/18 07:17:20;;;;;;;30.67;22.63;;;;;;;;;;743952;186;895299;-65
2023/08/18 07:19:46;;;;;;;35.50;25.50;;;;;;;;;;737394;189;917534;-67
2023/08/18 07:22:11;;;;;;;37.88;24.42;;;;;;;;;;736326;190;917153;-68
2023/08/18 07:24:37;;;;;;;34.87;25.20;;;;;;;;;;736741;190;921418;-65
2023/08/18 07:27:04;;;;;;;47.07;26.17;;;;;;;;;;734692;190;918946;-65
2023/08/18 07:29:29;;;;;;;34.25;23.15;;;;;;;;;;734509;190;1145968;-87
2023/08/18 07:31:55;;;;;;;34.83;22.63;;;;;;;;;;747168;189;629087;-85
2023/08/18 07:34:21;;;;;;;29.67;21.43;;;;;;;;;;738989;190;643694;-86
2023/08/18 07:36:47;;;;;;;30.90;23.00;;;;;;;;;;737285;189;638115;-86
2023/08/18 07:39:13;;;;;;;35.70;22.80;;;;;;;;;;739716;189;645495;-88
2023/08/18 07:41:39;;;;;;;31.97;23.23;;;;;;;;;;751129;186;633792;-86
2023/08/18 07:44:05;;;;;;;31.00;20.83;;;;;;;;;;733153;190;699752;-86
2023/08/18 07:46:30;;;;;;;27.70;21.27;;;;;;;;;;745160;189;636810;-89
2023/08/18 07:48:56;;;;;;;31.50;20.50;;;;;;;;;;738850;190;638546;-87
2023/08/18 07:51:22;;;;;;;30.27;20.83;;;;;;;;;;743080;189;614032;-86
2023/08/18 07:53:48;;;;;;;27.93;21.00;;;;;;;;;;739807;190;615674;-88
2023/08/18 07:56:14;;;;;;;27.10;20.97;;;;;;;;;;744223;189;635363;-87
2023/08/18 07:58:40;;;;;;;30.87;20.83;;;;;;;;;;729243;186;672039;-86
2023/08/18 08:01:06;;;;;;;29.80;20.20;;;;;;;;;;733153;191;660870;-85
2023/08/18 08:03:32;;;;;;;26.30;19.57;;;;;;;;;;744139;190;636443;-88
2023/08/18 08:05:57;;;;;;;27.00;19.80;;;;;;;;;;738958;189;659278;-88
2023/08/18 08:08:23;;;;;;;26.53;20.07;;;;;;;;;;738506;189;618167;-88
2023/08/18 08:10:49;;;;;;;25.80;18.03;;;;;;;;;;742747;190;634737;-88
2023/08/18 08:13:15;;;;;;;28.90;18.77;;;;;;;;;;744345;184;638008;-88
2023/08/18 08:15:45;;;;;;;22.03;16.63;;;;;;;;;;743137;189;711162;-86
2023/08/18 08:18:07;;;;;;;26.90;18.37;;;;;;;;;;743230;187;667690;-88
2023/08/18 08:20:33;;;;;;;26.03;19.17;;;;;;;;;;743087;190;634373;-88
2023/08/18 08:22:58;;;;;;;216.20;41.73;;;;;;;;;;736618;190;746347;-88
2023/08/18 08:25:24;;;;;;;30.67;19.93;;;;;;;;;;739831;190;690246;-87
2023/08/18 08:27:51;;;;;;;24.20;17.30;;;;;;;;;;744067;189;641115;-86
2023/08/18 08:30:16;;;;;;;29.70;20.27;;;;;;;;;;734767;190;624838;-85
2023/08/18 08:32:42;;;;;;;22.20;17.70;;;;;;;;;;737531;190;646469;-86
2023/08/18 08:35:08;;;;;;;27.23;17.93;;;;;;;;;;739969;190;672477;-86
2023/08/18 08:37:34;;;;;;;25.40;16.60;;;;;;;;;;743239;189;647581;-86
2023/08/18 08:39:59;;;;;;;22.23;17.80;;;;;;;;;;742635;189;635851;-85
2023/08/18 08:42:25;;;;;;;21.63;17.60;;;;;;;;;;736527;183;634552;-61
2023/08/18 08:44:51;;;;;;;23.10;15.60;;;;;;;;;;746672;186;918147;-59
2023/08/18 08:47:17;;;;;;;19.20;15.63;;;;;;;;;;754855;185;914169;-58
2023/08/18 08:49:43;;;;;;;18.27;14.77;;;;;;;;;;760915;183;904892;-64
2023/08/18 08:52:09;;;;;;;16.90;13.77;;;;;;;;;;761280;184;807100;-60
2023/08/18 08:54:35;;;;;;;18.87;16.07;;;;;;;;;;757687;185;638052;-64
2023/08/18 08:57:00;;;;;;;19.53;15.97;;;;;;;;;;739987;185;934836;-64
2023/08/18 08:59:27;;;;;;;36.88;15.65;;;;;;;;;;755601;185;819329;-64
2023/08/18 09:01:53;;;;;;;24.43;16.37;;;;;;;;;;763959;184;760748;-63
2023/08/18 09:04:18;;;;;;;23.80;16.37;;;;;;;;;;754048;184;924661;-60
2023/08/18 09:06:44;;;;;;;25.37;18.15;;;;;;;;;;755598;183;881665;-60
2023/08/18 09:09:11;;;;;;;19.83;17.03;;;;;;;;;;742905;189;622770;-60
2023/08/18 09:11:39;;;;;;;18.70;14.93;;;;;;;;;;755908;182;619633;-64
2023/08/18 09:14:05;;;;;;;16.87;14.87;;;;;;;;;;759794;182;778037;-65
2023/08/18 09:16:31;;;;;;;22.50;16.27;;;;;;;;;;760973;182;812946;-63
2023/08/18 09:18:56;;;;;;;21.70;18.50;;;;;;;;;;751509;183;918817;-65
2023/08/18 09:21:22;;;;;;;22.90;19.67;;;;;;;;;;756493;182;915245;-65
2023/08/18 09:23:48;;;;;;;24.53;18.57;;;;;;;;;;756022;183;908242;-61
2023/08/18 09:26:14;;;;;;;23.17;17.90;;;;;;;;;;758903;184;822345;-65
2023/08/18 09:28:40;;;;;;;32.33;18.20;;;;;;;;;;762203;181;630991;-59
2023/08/18 09:31:06;;;;;;;27.57;20.70;;;;;;;;;;757648;183;920962;-64
2023/08/18 09:33:31;;;;;;;23.53;19.37;;;;;;;;;;761009;184;920804;-64
2023/08/18 09:35:58;;;;;;;23.60;17.00;;;;;;;;;;759507;184;918456;-64
2023/08/18 09:38:25;;;;;;;22.43;16.97;;;;;;;;;;758188;184;919162;-60
2023/08/18 09:40:53;;;;;;;25.70;18.60;;;;;;;;;;763511;183;918982;-60
2023/08/18 09:43:19;;;;;;;20.57;17.50;;;;;;;;;;756961;184;918972;-60
2023/08/18 09:45:45;;;;;;;20.33;16.20;;;;;;;;;;752941;183;1020483;-60
2023/08/18 09:48:11;;;;;;;17.80;15.00;;;;;;;;;;759744;182;919732;-61
2023/08/18 09:50:36;;;;;;;18.83;15.67;;;;;;;;;;759137;183;919297;-64
2023/08/18 09:53:02;;;;;;;16.60;14.87;;;;;;;;;;755726;181;818998;-59
2023/08/18 09:55:29;;;;;;;15.03;13.10;;;;;;;;;;753815;184;894746;-60
2023/08/18 09:57:56;;;;;;;18.53;12.20;;;;;;;;;;757155;184;817980;-60
2023/08/18 10:00:21;;;;;;;22.63;11.60;;;;;;;;;;752831;182;919681;-61
2023/08/18 10:02:48;;;;;;;15.50;12.40;;;;;;;;;;762273;183;918831;-60
2023/08/18 10:05:13;;;;;;;13.13;11.73;;;;;;;;;;766776;183;920310;-64
2023/08/18 10:07:39;;;;;;;18.33;12.25;;;;;;;;;;758061;183;817812;-65
2023/08/18 10:10:05;;;;;;;12.60;11.13;;;;;;;;;;759986;183;816738;-60
2023/08/18 10:12:31;;;;;;;13.53;11.37;;;;;;;;;;760636;183;919440;-64
2023/08/18 10:14:57;;;;;;;13.30;10.97;;;;;;;;;;758865;183;920646;-59
2023/08/18 10:17:24;;;;;;;13.33;11.97;;;;;;;;;;757427;183;912765;-61
2023/08/18 10:19:49;;;;;;;11.40;10.30;;;;;;;;;;760946;182;848451;-61
2023/08/18 10:22:14;;;;;;;13.73;12.33;;;;;;;;;;754106;183;897731;-65
2023/08/18 10:24:40;;;;;;;11.87;10.57;;;;;;;;;;756655;183;920280;-66
2023/08/18 10:27:10;;;;;;;12.17;10.97;;;;;;;;;;759892;182;873015;-66
2023/08/18 10:29:32;;;;;;;325.60;51.10;;;;;;;;;;765252;181;856867;-65
2023/08/18 10:31:58;;;;;;;17.03;12.00;;;;;;;;;;752111;183;871249;-65
2023/08/18 10:34:24;;;;;;;21.17;12.67;;;;;;;;;;759123;182;919483;-65
2023/08/18 10:36:51;;;;;;;13.93;10.27;;;;;;;;;;758379;182;919045;-60
2023/08/18 10:39:22;;;;;;;13.90;10.73;;;;;;;;;;759505;184;917114;-65
2023/08/18 10:41:49;;;;;;;11.83;10.53;;;;;;;;;;758845;184;919653;-59
2023/08/18 10:44:14;;;;;;;17.00;10.50;;;;;;;;;;755651;182;943134;-60
2023/08/18 10:46:40;;;;;;;12.40;10.50;;;;;;;;;;761856;184;918179;-66
2023/08/18 10:49:06;;;;;;;11.10;8.67;;;;;;;;;;755025;184;918875;-60
2023/08/18 10:51:32;;;;;;;9.47;8.57;;;;;;;;;;749755;183;920801;-60
2023/08/18 10:53:59;;;;;;;12.87;11.57;;;;;;;;;;754567;185;919288;-64
2023/08/18 10:56:24;;;;;;;15.80;10.73;;;;;;;;;;759561;183;913175;-58
2023/08/18 10:58:50;;;;;;;11.90;10.60;;;;;;;;;;760163;182;813412;-65
2023/08/18 11:01:18;;;;;;;12.07;10.17;;;;;;;;;;756220;184;813544;-59
2023/08/18 11:03:41;;;;;;;11.27;9.27;;;;;;;;;;762253;183;916418;-58
2023/08/18 11:06:07;;;;;;;208.27;38.63;;;;;;;;;;753577;185;914451;-64
2023/08/18 11:08:33;;;;;;;12.97;10.00;;;;;;;;;;743469;188;916029;-64
2023/08/18 11:10:59;;;;;;;15.73;9.27;;;;;;;;;;748292;188;914882;-59
2023/08/18 11:13:25;;;;;;;10.90;9.80;;;;;;;;;;756466;184;820084;-64
2023/08/18 11:15:51;;;;;;;9.73;8.73;;;;;;;;;;750589;186;920465;-65
2023/08/18 11:18:17;;;;;;;9.13;7.30;;;;;;;;;;751597;184;918359;-63
2023/08/18 11:20:43;;;;;;;10.33;9.23;;;;;;;;;;760132;184;917862;-64
2023/08/18 11:23:09;;;;;;;11.73;8.30;;;;;;;;;;754967;184;919541;-59
2023/08/18 11:25:35;;;;;;;13.03;8.90;;;;;;;;;;762814;184;919497;-60
2023/08/18 11:28:01;;;;;;;10.77;9.77;;;;;;;;;;752697;185;813570;-59
2023/08/18 11:30:26;;;;;;;9.60;8.60;;;;;;;;;;750774;186;919355;-59
2023/08/18 11:32:54;;;;;;;10.60;9.40;;;;;;;;;;741444;188;849376;-59
2023/08/18 11:35:18;;;;;;;11.33;9.60;;;;;;;;;;753091;186;917130;-59
2023/08/18 11:37:44;;;;;;;10.37;9.23;;;;;;;;;;751124;186;818395;-64
2023/08/18 11:40:12;;;;;;;12.30;9.87;;;;;;;;;;754900;186;813328;-60
2023/08/18 11:42:37;;;;;;;13.13;9.63;;;;;;;;;;748104;185;630311;-64
2023/08/18 11:45:04;;;;;;;12.30;10.10;;;;;;;;;;760648;186;623257;-64
2023/08/18 11:47:29;;;;;;;11.77;9.87;;;;;;;;;;756437;186;637219;-58
2023/08/18 11:49:55;;;;;;;14.00;9.63;;;;;;;;;;744939;188;874763;-60
2023/08/18 11:52:21;;;;;;;11.90;9.90;;;;;;;;;;754963;186;818333;-64
2023/08/18 11:54:47;;;;;;;11.40;9.40;;;;;;;;;;746030;186;917409;-63
2023/08/18 11:57:13;;;;;;;11.50;9.73;;;;;;;;;;745058;186;917554;-64
2023/08/18 11:59:39;;;;;;;13.73;8.30;;;;;;;;;;752002;186;631716;-59
2023/08/18 12:02:05;;;;;;;10.00;8.37;;;;;;;;;;755210;184;816542;-65
2023/08/18 12:04:30;;;;;;;11.23;7.90;;;;;;;;;;753679;183;919283;-66
2023/08/18 12:06:56;;;;;;;10.37;8.27;;;;;;;;;;759322;184;918344;-59
2023/08/18 12:09:22;;;;;;;12.90;8.50;;;;;;;;;;761041;183;816496;-58
2023/08/18 12:11:48;;;;;;;11.50;10.17;;;;;;;;;;760604;182;926201;-59
2023/08/18 12:14:14;;;;;;;11.07;9.13;;;;;;;;;;746062;184;917987;-59
2023/08/18 12:16:41;;;;;;;13.63;8.73;;;;;;;;;;760363;184;943805;-63
2023/08/18 12:19:06;;;;;;;10.60;9.40;;;;;;;;;;755626;184;922935;-59
2023/08/18 12:21:31;;;;;;;9.53;7.70;;;;;;;;;;756554;183;948497;-64
2023/08/18 12:23:57;;;;;;;11.50;9.30;;;;;;;;;;765009;184;761738;-64
2023/08/18 12:26:23;;;;;;;10.93;8.70;;;;;;;;;;758554;182;916385;-58
2023/08/18 12:28:49;;;;;;;12.20;8.40;;;;;;;;;;753316;182;913170;-64
2023/08/18 12:31:17;;;;;;;13.53;7.50;;;;;;;;;;761817;181;912386;-63
2023/08/18 12:33:41;;;;;;;10.63;8.33;;;;;;;;;;759094;184;919213;-65
2023/08/18 12:36:06;;;;;;;8.67;7.90;;;;;;;;;;756386;183;872428;-62
2023/08/18 12:38:32;;;;;;;9.40;8.50;;;;;;;;;;757943;184;921123;-59
2023/08/18 12:40:58;;;;;;;10.40;7.70;;;;;;;;;;760877;183;862986;-65
2023/08/18 12:43:24;;;;;;;9.67;7.07;;;;;;;;;;748903;186;918005;-64
2023/08/18 12:45:50;;;;;;;11.70;8.33;;;;;;;;;;752874;186;918384;-64
2023/08/18 12:48:16;;;;;;;10.20;9.20;;;;;;;;;;741867;189;816717;-63
2023/08/18 12:50:41;;;;;;;8.63;7.43;;;;;;;;;;752446;185;920687;-58
2023/08/18 12:53:07;;;;;;;12.97;8.07;;;;;;;;;;752682;186;916296;-63
2023/08/18 12:55:33;;;;;;;9.10;8.30;;;;;;;;;;759546;186;919338;-65
2023/08/18 12:57:59;;;;;;;10.70;8.13;;;;;;;;;;751779;186;919527;-59
2023/08/18 13:00:25;;;;;;;10.20;8.80;;;;;;;;;;752178;186;917348;-57
2023/08/18 13:02:51;;;;;;;10.13;8.03;;;;;;;;;;754487;186;920199;-64
2023/08/18 13:05:16;;;;;;;8.77;7.90;;;;;;;;;;749373;186;918823;-63
2023/08/18 13:07:42;;;;;;;9.70;8.80;;;;;;;;;;751060;184;921919;-63
2023/08/18 13:10:08;;;;;;;8.70;6.83;;;;;;;;;;749038;186;918905;-64
2023/08/18 13:12:34;;;;;;;9.03;8.00;;;;;;;;;;743005;188;920471;-59
2023/08/18 13:15:00;;;;;;;8.43;7.50;;;;;;;;;;758299;184;919324;-58
2023/08/18 13:17:26;;;;;;;10.70;9.10;;;;;;;;;;753329;182;919350;-65
2023/08/18 13:19:52;;;;;;;13.70;9.10;;;;;;;;;;757645;181;918885;-63
2023/08/18 13:22:18;;;;;;;15.50;8.70;;;;;;;;;;752959;184;918858;-57
2023/08/18 13:24:43;;;;;;;17.30;10.18;;;;;;;;;;755760;184;918625;-58
2023/08/18 13:27:09;;;;;;;10.60;9.30;;;;;;;;;;750448;185;918951;-57
2023/08/18 13:29:35;;;;;;;9.33;8.50;;;;;;;;;;758390;181;919503;-57
2023/08/18 13:32:01;;;;;;;10.27;9.37;;;;;;;;;;755683;183;919142;-64
2023/08/18 13:34:27;;;;;;;11.60;8.60;;;;;;;;;;759671;183;919255;-63
2023/08/18 13:36:53;;;;;;;10.20;8.97;;;;;;;;;;761464;183;918513;-63
2023/08/18 13:39:19;;;;;;;10.07;8.97;;;;;;;;;;746813;184;918216;-57
2023/08/18 13:41:45;;;;;;;11.37;9.37;;;;;;;;;;757565;182;862341;-63
2023/08/18 13:44:11;;;;;;;10.10;9.10;;;;;;;;;;758349;184;921032;-58
2023/08/18 13:46:37;;;;;;;11.30;10.20;;;;;;;;;;732057;188;919554;-59
2023/08/18 13:49:03;;;;;;;11.97;9.50;;;;;;;;;;751202;185;918391;-63
2023/08/18 13:51:29;;;;;;;11.30;9.00;;;;;;;;;;743738;189;919431;-59
2023/08/18 13:53:54;;;;;;;12.63;9.43;;;;;;;;;;741863;188;817805;-58
2023/08/18 13:56:20;;;;;;;13.33;10.57;;;;;;;;;;754278;185;920533;-63